createdAt,value
2019-02-16T00:00:49.165Z,7.77
2019-02-16T00:03:18.559Z,7.97
2019-02-16T00:05:48.086Z,7.47
2019-02-16T00:08:17.362Z,8.57
2019-02-16T00:10:46.890Z,8.10
2019-02-16T00:13:16.176Z,7.77
2019-02-16T00:15:45.447Z,7.50
2019-02-16T00:18:33.705Z,8.57
2019-02-16T00:21:04.314Z,7.70
2019-02-16T00:23:33.993Z,7.47
2019-02-16T00:26:03.291Z,7.67
2019-02-16T00:28:32.590Z,8.00
2019-02-16T00:31:41.211Z,8.57
2019-02-16T00:34:22.610Z,8.33
2019-02-16T00:36:51.894Z,8.07
2019-02-16T00:39:21.284Z,7.83
2019-02-16T00:41:50.585Z,7.87
2019-02-16T00:44:20.055Z,7.50
2019-02-16T00:49:27.190Z,7.17
2019-02-16T00:54:31.429Z,8.57
2019-02-16T00:57:00.757Z,8.50
2019-02-16T00:59:30.157Z,7.97
2019-02-16T01:01:59.442Z,8.03
2019-02-16T01:04:28.822Z,8.37
2019-02-16T01:06:58.120Z,8.50
2019-02-16T01:09:27.525Z,8.10
2019-02-16T01:11:56.814Z,8.47
2019-02-16T01:14:26.395Z,7.90
2019-02-16T01:16:55.685Z,7.97
2019-02-16T01:19:25.329Z,7.13
2019-02-16T01:21:54.633Z,7.23
2019-02-16T01:24:24.028Z,7.17
2019-02-16T01:26:53.417Z,8.33
2019-02-16T01:29:22.857Z,7.63
2019-02-16T01:31:52.198Z,7.93
2019-02-16T01:34:21.470Z,7.97
2019-02-16T01:36:50.751Z,7.23
2019-02-16T01:39:20.238Z,6.93
2019-02-16T01:41:49.509Z,7.90
2019-02-16T01:44:19.020Z,7.63
2019-02-16T01:46:48.287Z,8.97
2019-02-16T01:49:17.836Z,8.00
2019-02-16T01:51:47.139Z,7.78
2019-02-16T01:54:35.467Z,8.47
2019-02-16T01:57:05.162Z,7.83
2019-02-16T01:59:34.466Z,7.70
2019-02-16T02:02:04.218Z,8.57
2019-02-16T02:07:08.177Z,7.40
2019-02-16T02:09:37.641Z,8.63
2019-02-16T02:12:07.002Z,7.57
2019-02-16T02:14:55.454Z,8.07
2019-02-16T02:17:25.269Z,7.30
2019-02-16T02:19:54.569Z,7.80
2019-02-16T02:22:24.098Z,7.77
2019-02-16T02:27:28.429Z,7.67
2019-02-16T02:29:58.069Z,7.27
2019-02-16T02:32:27.360Z,7.60
2019-02-16T02:34:57.027Z,7.57
2019-02-16T02:37:26.306Z,8.60
2019-02-16T02:39:55.647Z,8.30
2019-02-16T02:42:24.942Z,7.83
2019-02-16T02:44:54.332Z,9.27
2019-02-16T02:47:23.589Z,8.00
2019-02-16T02:49:53.299Z,8.43
2019-02-16T02:52:22.585Z,9.33
2019-02-16T02:54:52.125Z,9.30
2019-02-16T02:57:21.418Z,9.27
2019-02-16T02:59:51.098Z,9.37
2019-02-16T03:02:20.416Z,9.73
2019-02-16T03:04:49.863Z,9.67
2019-02-16T03:07:38.386Z,9.87
2019-02-16T03:10:07.789Z,9.90
2019-02-16T03:12:37.400Z,8.53
2019-02-16T03:15:07.191Z,9.97
2019-02-16T03:20:11.162Z,9.57
2019-02-16T03:23:18.457Z,10.83
2019-02-16T03:26:18.908Z,10.53
2019-02-16T03:29:26.246Z,9.83
2019-02-16T03:32:33.559Z,11.00
2019-02-16T03:35:15.099Z,10.30
2019-02-16T03:38:22.498Z,11.73
2019-02-16T03:41:11.290Z,11.20
2019-02-16T03:43:40.638Z,10.30
2019-02-16T03:46:10.330Z,10.73
2019-02-16T03:48:39.610Z,10.50
2019-02-16T03:51:09.215Z,12.07
2019-02-16T03:53:38.523Z,10.03
2019-02-16T03:56:08.197Z,11.17
2019-02-16T03:58:37.493Z,10.03
2019-02-16T04:01:07.292Z,11.13
2019-02-16T04:03:36.597Z,11.20
2019-02-16T04:06:06.333Z,12.00
2019-02-16T04:08:35.615Z,11.30
2019-02-16T04:11:05.325Z,11.17
2019-02-16T04:13:34.643Z,10.70
2019-02-16T04:16:04.231Z,10.90
2019-02-16T04:18:33.510Z,11.60
2019-02-16T04:21:03.313Z,11.47
2019-02-16T04:23:32.608Z,11.37
2019-02-16T04:26:07.187Z,11.27
2019-02-16T04:28:36.715Z,11.63
2019-02-16T04:31:06.031Z,11.70
2019-02-16T04:33:35.387Z,13.13
2019-02-16T04:36:04.740Z,12.20
2019-02-16T04:41:41.533Z,12.13
2019-02-16T04:44:11.334Z,11.60
2019-02-16T04:46:40.665Z,11.80
2019-02-16T04:49:10.269Z,11.90
2019-02-16T04:54:27.877Z,11.83
2019-02-16T04:56:57.183Z,13.13
2019-02-16T04:59:26.556Z,12.33
2019-02-16T05:01:56.064Z,13.47
2019-02-16T05:04:44.307Z,13.07
2019-02-16T05:07:13.640Z,13.90
2019-02-16T05:09:43.034Z,13.67
2019-02-16T05:12:12.338Z,14.10
2019-02-16T05:14:41.757Z,13.63
2019-02-16T05:17:11.052Z,13.47
2019-02-16T05:19:40.401Z,13.83
2019-02-16T05:22:09.681Z,14.20
2019-02-16T05:24:38.959Z,15.10
2019-02-16T05:27:08.259Z,14.20
2019-02-16T05:29:37.613Z,14.07
2019-02-16T05:32:06.913Z,14.40
2019-02-16T05:34:36.204Z,15.80
2019-02-16T05:37:05.499Z,15.73
2019-02-16T05:39:34.892Z,14.53
2019-02-16T05:42:04.230Z,14.33
2019-02-16T05:44:33.570Z,15.73
2019-02-16T05:47:02.878Z,16.10
2019-02-16T05:49:32.183Z,14.83
2019-02-16T05:52:01.539Z,14.10
2019-02-16T05:54:30.815Z,14.97
2019-02-16T05:57:00.362Z,15.43
2019-02-16T05:59:48.752Z,14.37
2019-02-16T06:02:18.096Z,15.80
2019-02-16T06:04:47.488Z,16.07
2019-02-16T06:07:16.804Z,15.60
2019-02-16T06:09:46.271Z,16.50
2019-02-16T06:12:15.574Z,15.53
2019-02-16T06:14:45.265Z,16.43
2019-02-16T06:17:14.556Z,16.53
2019-02-16T06:20:02.758Z,15.27
2019-02-16T06:22:32.307Z,16.07
2019-02-16T06:25:01.772Z,15.83
2019-02-16T06:27:50.156Z,16.43
2019-02-16T06:30:19.538Z,16.97
2019-02-16T06:33:07.839Z,16.20
2019-02-16T06:35:56.114Z,16.13
2019-02-16T06:38:25.424Z,17.57
2019-02-16T06:40:55.003Z,15.73
2019-02-16T06:43:24.305Z,16.00
2019-02-16T06:45:53.982Z,16.73
2019-02-16T06:48:23.270Z,16.57
2019-02-16T06:50:53.089Z,16.87
2019-02-16T06:53:22.372Z,15.93
2019-02-16T06:56:10.687Z,16.33
2019-02-16T06:58:40.177Z,15.87
2019-02-16T07:01:09.485Z,15.97
2019-02-16T07:03:38.907Z,15.60
2019-02-16T07:06:08.206Z,17.10
2019-02-16T07:08:37.686Z,16.77
2019-02-16T07:11:06.987Z,16.63
2019-02-16T07:13:36.311Z,16.07
2019-02-16T07:16:24.629Z,16.00
2019-02-16T07:18:59.271Z,17.20
2019-02-16T07:21:28.627Z,16.77
2019-02-16T07:23:57.933Z,16.20
2019-02-16T07:31:37.925Z,17.90
2019-02-16T07:34:07.252Z,17.83
2019-02-16T07:36:36.662Z,17.90
2019-02-16T07:39:25.110Z,18.67
2019-02-16T07:41:54.423Z,16.97
2019-02-16T07:44:42.752Z,17.13
2019-02-16T07:47:31.161Z,18.17
2019-02-16T07:50:38.485Z,18.50
2019-02-16T07:53:14.870Z,17.97
2019-02-16T07:56:03.262Z,19.13
2019-02-16T07:58:51.602Z,16.53
2019-02-16T08:01:48.815Z,17.00
2019-02-16T08:04:37.166Z,17.40
2019-02-16T08:07:25.508Z,18.07
2019-02-16T08:10:13.758Z,17.43
2019-02-16T08:13:01.978Z,17.57
2019-02-16T08:18:45.807Z,16.83
2019-02-16T08:21:22.772Z,15.88
2019-02-16T08:24:11.016Z,15.83
2019-02-16T08:26:59.283Z,16.87
2019-02-16T08:29:46.087Z,15.93
2019-02-16T08:32:34.407Z,15.97
2019-02-16T08:35:11.661Z,16.60
2019-02-16T08:37:48.515Z,15.97
2019-02-16T08:40:36.916Z,16.97
2019-02-16T08:43:17.660Z,16.67
2019-02-16T08:46:06.116Z,15.23
2019-02-16T08:48:41.060Z,16.07
2019-02-16T08:51:29.314Z,16.13
2019-02-16T08:54:08.901Z,15.10
2019-02-16T08:57:06.274Z,15.20
2019-02-16T08:59:53.256Z,15.83
2019-02-16T09:02:41.600Z,15.97
2019-02-16T09:05:30.062Z,14.77
2019-02-16T09:08:18.359Z,15.07
2019-02-16T09:11:06.774Z,16.20
2019-02-16T09:13:55.059Z,16.73
2019-02-16T09:16:43.319Z,15.00
2019-02-16T09:19:31.636Z,14.43
2019-02-16T09:22:19.886Z,15.93
2019-02-16T09:24:55.287Z,15.67
2019-02-16T09:27:41.982Z,15.97
2019-02-16T09:30:30.701Z,14.77
2019-02-16T09:35:59.872Z,15.03
2019-02-16T09:38:48.140Z,16.23
2019-02-16T09:41:36.375Z,15.80
2019-02-16T09:44:30.820Z,15.13
2019-02-16T09:47:19.052Z,16.43
2019-02-16T09:50:07.417Z,15.70
2019-02-16T09:52:44.985Z,15.03
2019-02-16T09:55:33.224Z,14.67
2019-02-16T09:58:25.300Z,15.80
2019-02-16T10:01:03.558Z,15.80
2019-02-16T10:03:39.873Z,16.27
2019-02-16T10:06:28.074Z,13.70
2019-02-16T10:09:02.330Z,15.60
2019-02-16T10:11:50.584Z,16.57
2019-02-16T10:14:28.683Z,15.90
2019-02-16T10:17:27.361Z,14.73
2019-02-16T10:20:18.067Z,14.73
2019-02-16T10:23:06.300Z,15.37
2019-02-16T10:25:55.022Z,14.53
2019-02-16T10:28:43.189Z,14.63
2019-02-16T10:31:31.409Z,15.67
2019-02-16T10:34:19.705Z,14.23
2019-02-16T10:37:08.020Z,14.90
2019-02-16T10:39:56.202Z,14.77
2019-02-16T10:42:44.441Z,14.53
2019-02-16T10:45:53.094Z,15.83
2019-02-16T10:48:38.687Z,13.30
2019-02-16T10:51:45.970Z,15.30
2019-02-16T10:54:34.414Z,14.67
2019-02-16T10:57:23.007Z,13.37
2019-02-16T11:00:11.211Z,14.83
2019-02-16T11:02:59.557Z,12.93
2019-02-16T11:05:38.448Z,14.13
2019-02-16T11:08:26.897Z,13.77
2019-02-16T11:11:01.916Z,14.57
2019-02-16T11:13:50.397Z,14.60
2019-02-16T11:16:32.407Z,15.13
2019-02-16T11:19:20.873Z,14.60
2019-02-16T11:25:08.282Z,14.63
2019-02-16T11:28:15.690Z,14.13
2019-02-16T11:31:22.860Z,13.73
2019-02-16T11:34:11.118Z,14.27
2019-02-16T11:36:49.852Z,14.90
2019-02-16T11:39:38.111Z,15.10
2019-02-16T11:42:26.406Z,14.67
2019-02-16T11:45:14.945Z,14.27
2019-02-16T11:48:09.355Z,14.93
2019-02-16T11:50:57.763Z,15.37
2019-02-16T11:53:42.171Z,15.23
2019-02-16T11:56:30.379Z,15.83
2019-02-16T11:59:18.664Z,14.57
2019-02-16T12:02:06.931Z,15.97
2019-02-16T12:04:55.134Z,14.73
2019-02-16T12:07:43.489Z,15.67
2019-02-16T12:10:31.673Z,15.23
2019-02-16T12:16:05.111Z,14.67
2019-02-16T12:18:53.331Z,16.03
2019-02-16T12:21:55.946Z,15.27
2019-02-16T12:24:30.490Z,14.67
2019-02-16T12:27:21.482Z,14.40
2019-02-16T12:30:10.465Z,12.90
2019-02-16T12:32:58.859Z,13.30
2019-02-16T12:35:47.170Z,13.97
2019-02-16T12:38:35.531Z,14.60
2019-02-16T12:41:23.742Z,14.50
2019-02-16T12:44:12.003Z,13.57
2019-02-16T12:47:00.254Z,13.77
2019-02-16T12:49:48.535Z,13.73
2019-02-16T12:52:37.592Z,13.70
2019-02-16T12:55:17.526Z,13.53
2019-02-16T12:58:05.918Z,14.43
2019-02-16T13:00:54.118Z,12.83
2019-02-16T13:03:29.585Z,13.00
2019-02-16T13:06:17.806Z,13.30
2019-02-16T13:08:56.217Z,13.77
2019-02-16T13:11:31.190Z,12.93
2019-02-16T13:14:38.414Z,13.13
2019-02-16T13:17:26.606Z,13.77
2019-02-16T13:20:14.776Z,13.17
2019-02-16T13:22:49.192Z,13.07
2019-02-16T13:25:27.260Z,13.10
2019-02-16T13:28:04.087Z,13.30
2019-02-16T13:30:52.309Z,12.83
2019-02-16T13:33:40.503Z,12.90
2019-02-16T13:36:28.759Z,13.07
2019-02-16T13:39:17.023Z,12.47
2019-02-16T13:42:05.207Z,12.53
2019-02-16T13:44:53.584Z,12.47
2019-02-16T13:47:41.846Z,12.80
2019-02-16T13:50:30.106Z,12.53
2019-02-16T13:53:18.317Z,12.27
2019-02-16T13:56:06.562Z,12.87
2019-02-16T13:58:54.715Z,12.20
2019-02-16T14:01:32.062Z,12.67
2019-02-16T14:07:28.404Z,11.87
2019-02-16T14:10:35.533Z,12.23
2019-02-16T14:13:24.089Z,14.13
2019-02-16T14:16:12.300Z,13.43
2019-02-16T14:18:42.118Z,11.80
2019-02-16T14:21:11.395Z,12.80
2019-02-16T14:23:40.856Z,11.83
2019-02-16T14:26:10.167Z,11.67
2019-02-16T14:28:58.430Z,13.17
2019-02-16T14:31:28.753Z,12.77
2019-02-16T14:33:59.097Z,11.70
2019-02-16T14:36:28.578Z,11.33
2019-02-16T14:39:02.564Z,12.30
2019-02-16T14:44:20.124Z,11.73
2019-02-16T14:49:50.030Z,11.67
2019-02-16T14:52:19.344Z,11.67
2019-02-16T14:54:48.776Z,10.37
2019-02-16T14:57:18.149Z,11.33
2019-02-16T14:59:47.482Z,11.63
2019-02-16T15:02:16.791Z,11.40
2019-02-16T15:04:46.165Z,11.48
2019-02-16T15:07:34.622Z,11.33
2019-02-16T15:10:04.140Z,10.77
2019-02-16T15:12:33.440Z,11.80
2019-02-16T15:15:02.782Z,10.90
2019-02-16T15:17:50.970Z,11.53
2019-02-16T15:20:20.318Z,10.43
2019-02-16T15:22:49.686Z,11.00
2019-02-16T15:25:38.040Z,10.73
2019-02-16T15:28:07.348Z,10.77
2019-02-16T15:30:36.787Z,10.47
2019-02-16T15:33:06.135Z,9.87
2019-02-16T15:35:36.004Z,9.67
2019-02-16T15:38:05.342Z,9.07
2019-02-16T15:40:34.776Z,9.90
2019-02-16T15:43:04.112Z,9.17
2019-02-16T15:45:33.813Z,9.73
2019-02-16T15:48:03.111Z,8.73
2019-02-16T15:50:32.749Z,8.23
2019-02-16T15:53:02.071Z,9.03
2019-02-16T15:55:31.482Z,8.90
2019-02-16T15:58:00.802Z,8.70
2019-02-16T16:00:30.405Z,9.27
2019-02-16T16:02:59.822Z,8.73
2019-02-16T16:05:29.365Z,9.47
2019-02-16T16:08:16.305Z,8.73
2019-02-16T16:11:04.523Z,9.40
2019-02-16T16:13:41.773Z,8.80
2019-02-16T16:16:29.993Z,8.97
2019-02-16T16:19:18.331Z,9.67
2019-02-16T16:22:06.597Z,9.00
2019-02-16T16:24:55.039Z,9.13
2019-02-16T16:27:43.267Z,9.20
2019-02-16T16:30:31.557Z,7.60
2019-02-16T16:33:19.832Z,7.53
2019-02-16T16:36:08.118Z,8.43
2019-02-16T16:38:56.770Z,9.37
2019-02-16T16:41:36.384Z,9.27
2019-02-16T16:44:24.680Z,7.50
2019-02-16T16:47:03.526Z,8.63
2019-02-16T16:49:51.728Z,8.90
2019-02-16T16:52:39.997Z,7.90
2019-02-16T16:55:28.228Z,8.67
2019-02-16T16:58:16.493Z,7.90
2019-02-16T17:01:04.908Z,9.47
2019-02-16T17:03:53.326Z,8.30
2019-02-16T17:06:29.183Z,8.30
2019-02-16T17:09:17.472Z,8.13
2019-02-16T17:12:05.961Z,8.70
2019-02-16T17:14:54.215Z,7.83
2019-02-16T17:17:42.694Z,7.67
2019-02-16T17:20:22.713Z,7.23
2019-02-16T17:23:27.087Z,7.70
2019-02-16T17:26:15.299Z,8.17
2019-02-16T17:29:03.527Z,7.57
2019-02-16T17:31:45.301Z,7.67
2019-02-16T17:34:33.858Z,7.60
2019-02-16T17:37:22.357Z,8.43
2019-02-16T17:40:10.654Z,7.23
2019-02-16T17:42:59.069Z,7.53
2019-02-16T17:46:06.422Z,7.80
2019-02-16T17:49:03.476Z,6.63
2019-02-16T17:51:51.801Z,7.57
2019-02-16T17:54:40.286Z,6.87
2019-02-16T17:57:28.785Z,7.40
2019-02-16T18:00:17.314Z,7.43
2019-02-16T18:02:54.753Z,6.83
2019-02-16T18:05:43.150Z,7.03
2019-02-16T18:08:31.459Z,7.83
2019-02-16T18:11:19.827Z,7.10
2019-02-16T18:14:08.272Z,7.33
2019-02-16T18:16:56.598Z,7.13
2019-02-16T18:19:45.475Z,7.20
2019-02-16T18:22:34.122Z,6.83
2019-02-16T18:25:22.367Z,6.70
2019-02-16T18:28:16.973Z,6.63
2019-02-16T18:31:05.336Z,7.53
2019-02-16T18:33:54.189Z,6.73
2019-02-16T18:36:34.502Z,6.63
2019-02-16T18:42:07.902Z,5.77
2019-02-16T18:44:56.337Z,6.63
2019-02-16T18:47:41.669Z,5.93
2019-02-16T18:50:31.699Z,6.27
2019-02-16T18:53:20.083Z,5.90
2019-02-16T18:56:08.597Z,6.03
2019-02-16T18:58:56.942Z,5.97
2019-02-16T19:01:45.597Z,6.27
2019-02-16T19:04:34.139Z,6.53
2019-02-16T19:07:20.985Z,6.33
2019-02-16T19:10:00.635Z,6.60
2019-02-16T19:12:49.099Z,5.87
2019-02-16T19:15:30.694Z,6.90
2019-02-16T19:18:06.184Z,5.57
2019-02-16T19:24:19.025Z,6.27
2019-02-16T19:27:16.264Z,7.07
2019-02-16T19:30:16.295Z,6.93
2019-02-16T19:33:04.504Z,6.97
2019-02-16T19:35:52.748Z,7.67
2019-02-16T19:38:29.835Z,7.33
2019-02-16T19:41:18.037Z,6.47
2019-02-16T19:44:06.241Z,7.63
2019-02-16T19:49:55.397Z,7.43
2019-02-16T19:52:44.103Z,7.37
2019-02-16T19:55:32.347Z,7.13
2019-02-16T19:58:20.563Z,6.73
2019-02-16T20:01:08.915Z,7.63
2019-02-16T20:03:57.132Z,6.50
2019-02-16T20:06:45.395Z,7.60
2019-02-16T20:09:18.324Z,7.90
2019-02-16T20:12:06.727Z,6.87
2019-02-16T20:14:54.995Z,7.43
2019-02-16T20:17:46.196Z,8.33
2019-02-16T20:20:34.885Z,7.00
2019-02-16T20:23:23.193Z,6.90
2019-02-16T20:26:02.514Z,7.57
2019-02-16T20:28:50.729Z,7.17
2019-02-16T20:31:39.223Z,7.27
2019-02-16T20:34:27.489Z,7.57
2019-02-16T20:37:15.809Z,7.03
2019-02-16T20:40:04.096Z,6.87
2019-02-16T20:45:46.672Z,8.63
2019-02-16T20:48:34.933Z,7.10
2019-02-16T20:51:23.153Z,6.60
2019-02-16T20:54:11.649Z,6.97
2019-02-16T20:56:57.003Z,6.93
2019-02-16T20:59:45.362Z,6.13
2019-02-16T21:02:22.591Z,6.23
2019-02-16T21:05:09.542Z,7.17
2019-02-16T21:07:58.020Z,5.70
2019-02-16T21:10:37.153Z,6.03
2019-02-16T21:13:25.366Z,5.73
2019-02-16T21:16:13.648Z,5.30
2019-02-16T21:19:02.030Z,5.97
2019-02-16T21:21:50.223Z,5.20
2019-02-16T21:24:38.653Z,5.37
2019-02-16T21:27:17.556Z,5.40
2019-02-16T21:30:05.895Z,5.03
2019-02-16T21:32:54.085Z,5.43
2019-02-16T21:35:42.272Z,5.80
2019-02-16T21:38:51.368Z,7.20
2019-02-16T21:41:42.534Z,6.03
2019-02-16T21:44:16.911Z,5.40
2019-02-16T21:46:54.751Z,5.17
2019-02-16T21:49:42.936Z,5.63
2019-02-16T21:52:31.201Z,4.70
2019-02-16T21:55:08.498Z,5.53
2019-02-16T21:57:56.692Z,5.13
2019-02-16T22:00:44.888Z,5.27
2019-02-16T22:03:35.712Z,5.07
2019-02-16T22:06:23.912Z,4.90
2019-02-16T22:09:12.130Z,5.33
2019-02-16T22:11:51.633Z,5.07
2019-02-16T22:14:21.374Z,5.23
2019-02-16T22:16:50.687Z,4.87
2019-02-16T22:19:20.424Z,4.90
2019-02-16T22:21:49.718Z,5.97
2019-02-16T22:24:19.227Z,5.07
2019-02-16T22:26:48.543Z,5.37
2019-02-16T22:29:18.337Z,5.20
2019-02-16T22:31:47.619Z,4.87
2019-02-16T22:34:17.238Z,5.40
2019-02-16T22:36:46.547Z,4.87
2019-02-16T22:39:16.146Z,5.03
2019-02-16T22:44:59.494Z,5.80
2019-02-16T22:47:28.963Z,5.40
2019-02-16T22:49:58.261Z,5.90
2019-02-16T22:52:27.767Z,4.93
2019-02-16T22:54:57.081Z,5.67
2019-02-16T22:57:26.513Z,4.63
2019-02-16T22:59:55.827Z,5.57
2019-02-16T23:02:25.263Z,4.90
2019-02-16T23:04:54.550Z,5.13
2019-02-16T23:07:24.168Z,4.30
2019-02-16T23:09:53.579Z,5.07
2019-02-16T23:12:23.409Z,5.00
2019-02-16T23:14:52.696Z,4.77
2019-02-16T23:17:22.089Z,4.83
2019-02-16T23:19:51.403Z,4.80
2019-02-16T23:22:21.093Z,4.90
2019-02-16T23:24:50.398Z,3.93
2019-02-16T23:27:20.109Z,4.50
2019-02-16T23:29:49.433Z,4.37
2019-02-16T23:32:19.003Z,4.87
2019-02-16T23:34:48.316Z,4.40
2019-02-16T23:37:18.046Z,4.23
2019-02-16T23:39:47.370Z,4.27
2019-02-16T23:42:16.884Z,4.73
2019-02-16T23:45:05.093Z,4.30
2019-02-16T23:47:34.371Z,3.63
2019-02-16T23:50:04.058Z,4.07
2019-02-16T23:52:33.359Z,3.53
2019-02-16T23:55:02.840Z,3.93
2019-02-16T23:57:32.174Z,4.70
